Time,TemperatureF,DewpointF,PressureIn,WindDirection,WindDirectionDegrees,WindSpeedMPH,WindSpeedGustMPH,Humidity,HourlyPrecipIn,Conditions,Clouds,dailyrainin,SoftwareType,DateUTC
2013-09-17 00:07:00,59.0,54.2,30.22,West,270,1.0,9.0,84,0.00,,,-99.99,Weather View 32 v60,2013-09-17 05:07:00,
2013-09-17 00:14:00,59.0,54.2,30.22,WSW,247,1.0,9.0,84,0.00,,,-99.99,Weather View 32 v60,2013-09-17 05:14:00,
2013-09-17 00:29:00,59.0,54.2,30.21,ESE,112,0.0,7.0,84,0.00,,,-99.99,Weather View 32 v60,2013-09-17 05:29:00,
2013-09-17 00:44:00,59.0,54.2,30.21,East,90,0.0,7.0,84,0.00,,,-99.99,Weather View 32 v60,2013-09-17 05:44:00,
2013-09-17 00:59:00,59.0,54.2,30.21,ESE,112,1.0,7.0,84,0.00,,,-99.99,Weather View 32 v60,2013-09-17 05:59:00,
2013-09-17 01:07:00,59.0,54.2,30.21,ESE,112,1.0,7.0,84,0.00,,,-99.99,Weather View 32 v60,2013-09-17 06:07:00,
2013-09-17 01:14:00,58.0,53.2,30.21,WNW,292,2.0,13.0,84,0.00,,,-99.99,Weather View 32 v60,2013-09-17 06:14:00,
2013-09-17 01:29:00,58.0,53.2,30.21,SW,225,0.0,13.0,84,0.00,,,-99.99,Weather View 32 v60,2013-09-17 06:29:00,
2013-09-17 01:44:00,58.0,53.2,30.21,SW,225,1.0,13.0,84,0.00,,,-99.99,Weather View 32 v60,2013-09-17 06:44:00,
2013-09-17 01:59:00,57.0,51.9,30.21,West,270,0.0,13.0,83,0.00,,,-99.99,Weather View 32 v60,2013-09-17 06:59:00,
2013-09-17 02:08:00,57.0,51.9,30.21,West,270,0.0,13.0,83,0.00,,,-99.99,Weather View 32 v60,2013-09-17 07:08:00,
2013-09-17 02:14:00,57.0,51.5,30.21,South,180,0.0,13.0,82,0.00,,,-99.99,Weather View 32 v60,2013-09-17 07:14:00,
2013-09-17 02:29:00,57.0,51.5,30.21,SSE,157,0.0,12.0,82,0.00,,,-99.99,Weather View 32 v60,2013-09-17 07:29:00,
2013-09-17 02:44:00,57.0,50.9,30.20,South,180,0.0,9.0,80,0.00,,,-99.99,Weather View 32 v60,2013-09-17 07:44:00,
2013-09-17 02:59:00,57.0,50.5,30.20,NNE,22,0.0,9.0,79,0.00,,,-99.99,Weather View 32 v60,2013-09-17 07:59:00,
2013-09-17 03:08:00,57.0,50.5,30.20,NNE,22,0.0,9.0,79,0.00,,,-99.99,Weather View 32 v60,2013-09-17 08:08:00,
2013-09-17 03:14:00,57.0,50.2,30.20,ENE,67,0.0,9.0,78,0.00,,,-99.99,Weather View 32 v60,2013-09-17 08:14:00,
2013-09-17 03:29:00,57.0,49.8,30.19,South,180,0.0,8.0,77,0.00,,,-99.99,Weather View 32 v60,2013-09-17 08:29:00,
2013-09-17 03:44:00,57.0,49.5,30.19,South,180,0.0,8.0,76,0.00,,,-99.99,Weather View 32 v60,2013-09-17 08:44:00,
2013-09-17 03:59:00,57.0,49.1,30.18,SSE,157,0.0,8.0,75,0.00,,,-99.99,Weather View 32 v60,2013-09-17 08:59:00,
2013-09-17 04:09:00,57.0,49.1,30.18,SSE,157,0.0,8.0,75,0.00,,,-99.99,Weather View 32 v60,2013-09-17 09:09:00,
2013-09-17 04:29:00,57.0,48.4,30.18,SSE,157,1.0,8.0,73,0.00,,,-99.99,Weather View 32 v60,2013-09-17 09:29:00,
2013-09-17 04:44:00,57.0,47.7,30.17,ESE,112,0.0,8.0,71,0.00,,,-99.99,Weather View 32 v60,2013-09-17 09:44:00,
2013-09-17 04:59:00,56.0,46.7,30.17,ESE,112,0.0,7.0,71,0.01,,,-99.99,Weather View 32 v60,2013-09-17 09:59:00,
2013-09-17 05:10:00,56.0,46.7,30.17,ESE,112,0.0,7.0,71,0.01,,,-99.99,Weather View 32 v60,2013-09-17 10:10:00,
2013-09-17 05:29:00,56.0,45.6,30.16,SE,135,0.0,7.0,68,0.01,,,-99.99,Weather View 32 v60,2013-09-17 10:29:00,
2013-09-17 05:44:00,56.0,45.2,30.16,SW,225,4.0,12.0,67,0.01,,,-99.99,Weather View 32 v60,2013-09-17 10:44:00,
2013-09-17 05:59:00,57.0,46.5,30.16,SSW,202,0.0,12.0,68,0.01,,,-99.99,Weather View 32 v60,2013-09-17 10:59:00,
2013-09-17 06:10:00,57.0,46.5,30.16,SSW,202,0.0,12.0,68,0.01,,,-99.99,Weather View 32 v60,2013-09-17 11:10:00,
2013-09-17 06:29:00,56.0,44.8,30.15,SSE,157,0.0,12.0,66,0.01,,,-99.99,Weather View 32 v60,2013-09-17 11:29:00,
2013-09-17 06:44:00,56.0,44.8,30.15,SSW,202,0.0,9.0,66,0.01,,,-99.99,Weather View 32 v60,2013-09-17 11:44:00,
2013-09-17 06:59:00,56.0,44.8,30.15,West,270,1.0,12.0,66,0.00,,,-99.99,Weather View 32 v60,2013-09-17 11:59:00,
2013-09-17 07:11:00,56.0,44.8,30.15,West,270,1.0,12.0,66,0.00,,,-99.99,Weather View 32 v60,2013-09-17 12:11:00,
2013-09-17 07:29:00,56.0,44.4,30.15,WSW,247,0.0,12.0,65,0.00,,,-99.99,Weather View 32 v60,2013-09-17 12:29:00,
2013-09-17 07:44:00,57.0,45.7,30.15,West,270,0.0,12.0,66,0.00,,,-99.99,Weather View 32 v60,2013-09-17 12:44:00,
2013-09-17 07:59:00,57.0,44.9,30.14,West,270,0.0,10.0,64,0.00,,,-99.99,Weather View 32 v60,2013-09-17 12:59:00,
2013-09-17 08:12:00,57.0,44.9,30.14,West,270,0.0,10.0,64,0.00,,,-99.99,Weather View 32 v60,2013-09-17 13:12:00,
2013-09-17 08:29:00,57.0,44.9,30.14,WNW,292,1.0,10.0,64,0.00,,,-99.99,Weather View 32 v60,2013-09-17 13:29:00,
2013-09-17 08:44:00,57.0,44.9,30.14,SSW,202,2.0,10.0,64,0.00,,,-99.99,Weather View 32 v60,2013-09-17 13:44:00,
2013-09-17 08:59:00,57.0,44.9,30.14,WSW,247,0.0,10.0,64,0.00,,,-99.99,Weather View 32 v60,2013-09-17 13:59:00,
2013-09-17 09:12:00,57.0,44.9,30.14,WSW,247,0.0,10.0,64,0.00,,,-99.99,Weather View 32 v60,2013-09-17 14:12:00,
2013-09-17 09:29:00,58.0,45.9,30.13,SSW,202,1.0,9.0,64,0.00,,,-99.99,Weather View 32 v60,2013-09-17 14:29:00,
2013-09-17 09:44:00,58.0,45.9,30.13,WNW,292,0.0,9.0,64,0.00,,,-99.99,Weather View 32 v60,2013-09-17 14:44:00,
2013-09-17 09:59:00,58.0,45.4,30.13,ESE,112,0.0,9.0,63,0.00,,,-99.99,Weather View 32 v60,2013-09-17 14:59:00,
2013-09-17 10:13:00,58.0,45.4,30.13,ESE,112,0.0,9.0,63,0.00,,,-99.99,Weather View 32 v60,2013-09-17 15:13:00,
2013-09-17 10:29:00,59.0,46.4,30.12,SSW,202,2.0,10.0,63,0.00,,,-99.99,Weather View 32 v60,2013-09-17 15:29:00,
2013-09-17 10:44:00,59.0,46.4,30.12,SE,135,5.0,10.0,63,0.00,,,-99.99,Weather View 32 v60,2013-09-17 15:44:00,
2013-09-17 10:59:00,59.0,46.4,30.12,SSW,202,0.0,10.0,63,0.00,,,-99.99,Weather View 32 v60,2013-09-17 15:59:00,
2013-09-17 11:13:00,59.0,46.4,30.12,SSW,202,0.0,10.0,63,0.00,,,-99.99,Weather View 32 v60,2013-09-17 16:13:00,
2013-09-17 11:29:00,60.0,47.8,30.10,South,180,0.0,13.0,64,0.00,,,-99.99,Weather View 32 v60,2013-09-17 16:29:00,
2013-09-17 11:44:00,60.0,48.2,30.09,SSE,157,0.0,13.0,65,0.00,,,-99.99,Weather View 32 v60,2013-09-17 16:44:00,
2013-09-17 11:59:00,61.0,50.7,30.08,East,90,4.0,13.0,69,0.00,,,-99.99,Weather View 32 v60,2013-09-17 16:59:00,
2013-09-17 12:14:00,61.0,50.7,30.08,East,90,4.0,13.0,69,0.00,,,-99.99,Weather View 32 v60,2013-09-17 17:14:00,
2013-09-17 12:29:00,61.0,52.6,30.08,WSW,247,9.0,12.0,74,0.00,,,-99.99,Weather View 32 v60,2013-09-17 17:29:00,
2013-09-17 12:44:00,62.0,53.6,30.06,WSW,247,1.0,12.0,74,0.00,,,-99.99,Weather View 32 v60,2013-09-17 17:44:00,
2013-09-17 12:59:00,62.0,54.7,30.06,WNW,292,0.0,13.0,77,0.00,,,-99.99,Weather View 32 v60,2013-09-17 17:59:00,
2013-09-17 13:14:00,62.0,54.7,30.05,SW,225,2.0,13.0,77,0.00,,,-99.99,Weather View 32 v60,2013-09-17 18:14:00,
2013-09-17 13:29:00,62.0,54.7,30.05,South,180,0.0,13.0,77,0.00,,,-99.99,Weather View 32 v60,2013-09-17 18:29:00,
2013-09-17 13:44:00,62.0,55.4,30.04,West,270,0.0,13.0,79,0.00,,,-99.99,Weather View 32 v60,2013-09-17 18:44:00,
2013-09-17 13:59:00,63.0,56.7,30.04,ESE,112,1.0,10.0,80,0.00,,,-99.99,Weather View 32 v60,2013-09-17 18:59:00,
2013-09-17 14:14:00,63.0,56.4,30.03,SSE,157,1.0,13.0,79,0.00,,,-99.99,Weather View 32 v60,2013-09-17 19:14:00,
2013-09-17 14:29:00,63.0,56.7,30.02,WSW,247,0.0,13.0,80,0.00,,,-99.99,Weather View 32 v60,2013-09-17 19:29:00,
2013-09-17 14:44:00,64.0,58.0,30.01,East,90,0.0,13.0,81,0.00,,,-99.99,Weather View 32 v60,2013-09-17 19:44:00,
2013-09-17 14:59:00,64.0,58.0,30.00,East,90,6.0,13.0,81,0.00,,,-99.99,Weather View 32 v60,2013-09-17 19:59:00,
2013-09-17 15:14:00,64.0,58.0,30.00,NNW,337,0.0,10.0,81,0.00,,,-99.99,Weather View 32 v60,2013-09-17 20:14:00,
2013-09-17 15:29:00,64.0,58.0,29.99,SE,135,2.0,10.0,81,0.00,,,-99.99,Weather View 32 v60,2013-09-17 20:29:00,
2013-09-17 15:44:00,65.0,59.0,29.98,WSW,247,0.0,10.0,81,0.00,,,-99.99,Weather View 32 v60,2013-09-17 20:44:00,
2013-09-17 15:59:00,65.0,59.0,29.98,SSW,202,2.0,12.0,81,0.00,,,-99.99,Weather View 32 v60,2013-09-17 20:59:00,
2013-09-17 16:14:00,65.0,59.0,29.98,South,180,0.0,12.0,81,0.00,,,-99.99,Weather View 32 v60,2013-09-17 21:14:00,
2013-09-17 16:29:00,65.0,59.0,29.97,West,270,1.0,12.0,81,0.00,,,-99.99,Weather View 32 v60,2013-09-17 21:29:00,
2013-09-17 16:44:00,65.0,58.7,29.97,SSW,202,0.0,12.0,80,0.00,,,-99.99,Weather View 32 v60,2013-09-17 21:44:00,
2013-09-17 16:59:00,65.0,58.3,29.97,SSE,157,3.0,12.0,79,0.00,,,-99.99,Weather View 32 v60,2013-09-17 21:59:00,
2013-09-17 17:14:00,65.0,58.0,29.96,ESE,112,3.0,12.0,78,0.00,,,-99.99,Weather View 32 v60,2013-09-17 22:14:00,
2013-09-17 17:29:00,66.0,58.9,29.95,NE,45,0.0,12.0,78,0.00,,,-99.99,Weather View 32 v60,2013-09-17 22:29:00,
2013-09-17 17:44:00,66.0,58.9,29.95,WNW,292,0.0,12.0,78,0.00,,,-99.99,Weather View 32 v60,2013-09-17 22:44:00,
2013-09-17 17:59:00,66.0,58.2,29.95,West,270,0.0,10.0,76,0.00,,,-99.99,Weather View 32 v60,2013-09-17 22:59:00,
2013-09-17 18:14:00,65.0,56.5,29.95,West,270,0.0,9.0,74,0.00,,,-99.99,Weather View 32 v60,2013-09-17 23:14:00,
2013-09-17 18:29:00,65.0,54.6,29.95,SSW,202,0.0,9.0,69,0.00,,,-99.99,Weather View 32 v60,2013-09-17 23:29:00,
2013-09-17 18:44:00,65.0,53.7,29.95,SSW,202,0.0,7.0,67,0.00,,,-99.99,Weather View 32 v60,2013-09-17 23:44:00,
2013-09-17 18:59:00,65.0,53.3,29.95,South,180,0.0,7.0,66,0.00,,,-99.99,Weather View 32 v60,2013-09-17 23:59:00,
2013-09-17 19:14:00,65.0,53.3,29.95,West,270,0.0,7.0,66,0.00,,,-99.99,Weather View 32 v60,2013-09-18 00:14:00,
2013-09-17 19:29:00,65.0,52.9,29.94,West,270,0.0,7.0,65,0.00,,,-99.99,Weather View 32 v60,2013-09-18 00:29:00,
2013-09-17 19:44:00,65.0,52.5,29.94,ENE,67,1.0,9.0,64,0.00,,,-99.99,Weather View 32 v60,2013-09-18 00:44:00,
2013-09-17 19:59:00,65.0,52.9,29.93,East,90,0.0,9.0,65,0.00,,,-99.99,Weather View 32 v60,2013-09-18 00:59:00,
2013-09-17 20:14:00,65.0,52.5,29.94,SSE,157,1.0,9.0,64,0.00,,,-99.99,Weather View 32 v60,2013-09-18 01:14:00,
2013-09-17 20:29:00,65.0,52.9,29.94,SE,135,0.0,9.0,65,0.00,,,-99.99,Weather View 32 v60,2013-09-18 01:29:00,
2013-09-17 20:44:00,66.0,54.3,29.93,ENE,67,0.0,10.0,66,0.00,,,-99.99,Weather View 32 v60,2013-09-18 01:44:00,
2013-09-17 20:59:00,66.0,54.7,29.93,ESE,112,0.0,10.0,67,0.00,,,-99.99,Weather View 32 v60,2013-09-18 01:59:00,
2013-09-17 21:14:00,66.0,55.1,29.93,ESE,112,0.0,10.0,68,0.00,,,-99.99,Weather View 32 v60,2013-09-18 02:14:00,
2013-09-17 21:29:00,66.0,55.5,29.93,SSE,157,2.0,10.0,69,0.00,,,-99.99,Weather View 32 v60,2013-09-18 02:29:00,
2013-09-17 21:44:00,66.0,56.7,29.93,SSE,157,2.0,9.0,72,0.00,,,-99.99,Weather View 32 v60,2013-09-18 02:44:00,
2013-09-17 21:59:00,66.0,55.9,29.93,NE,45,0.0,9.0,70,0.00,,,-99.99,Weather View 32 v60,2013-09-18 02:59:00,
2013-09-17 22:14:00,66.0,56.3,29.93,SSE,157,2.0,9.0,71,0.00,,,-99.99,Weather View 32 v60,2013-09-18 03:14:00,
2013-09-17 22:19:00,66.0,56.3,29.93,SSE,157,2.0,9.0,71,0.00,,,-99.99,Weather View 32 v60,2013-09-18 03:19:00,
2013-09-17 22:29:00,67.0,57.6,29.93,East,90,0.0,9.0,72,0.00,,,-99.99,Weather View 32 v60,2013-09-18 03:29:00,
2013-09-17 22:44:00,67.0,57.6,29.92,SSW,202,1.0,9.0,72,0.00,,,-99.99,Weather View 32 v60,2013-09-18 03:44:00,
2013-09-17 22:59:00,67.0,57.6,29.92,ESE,112,0.0,9.0,72,0.00,,,-99.99,Weather View 32 v60,2013-09-18 03:59:00,
2013-09-17 23:14:00,67.0,57.3,29.92,SE,135,0.0,9.0,71,0.00,,,-99.99,Weather View 32 v60,2013-09-18 04:14:00,
2013-09-17 23:20:00,67.0,57.3,29.92,SE,135,0.0,9.0,71,0.00,,,-99.99,Weather View 32 v60,2013-09-18 04:20:00,
2013-09-17 23:29:00,67.0,57.6,29.92,NW,315,2.0,9.0,72,0.00,,,-99.99,Weather View 32 v60,2013-09-18 04:29:00,
2013-09-17 23:44:00,67.0,56.9,29.91,SSW,202,3.0,9.0,70,0.00,,,-99.99,Weather View 32 v60,2013-09-18 04:44:00,
2013-09-17 23:59:00,67.0,56.9,29.91,NE,45,0.0,13.0,70,0.00,,,-99.99,Weather View 32 v60,2013-09-18 04:59:00,